Time;durP1;ratioP1;P1;durP2;ratioP2;P2;SDS_P1;SDS_P2;PMS_P1;PMS_P2;Temp;Humidity;BMP_temperature;BMP_pressure;BME280_temperature;BME280_humidity;BME280_pressure;Samples;Min_cycle;Max_cycle;Signal;HPM_P1;HPM_P2
2024/01/27 00:02:56;;;;;;;5.53;3.83;;;;;;;9.36;40.33;101387.50;10331751;28;20695;-37
2024/01/27 00:07:58;;;;;;;5.70;3.97;;;;;;;8.44;41.14;101519.09;10351724;28;20358;-36
2024/01/27 00:12:59;;;;;;;6.67;3.20;;;;;;;8.94;39.97;101579.91;10350027;28;20244;-35
2024/01/27 00:18:02;;;;;;;4.70;3.80;;;;;;;8.39;41.07;101530.16;10339149;28;20343;-50
2024/01/27 00:23:04;;;;;;;3.67;3.03;;;;;;;8.05;41.88;101402.28;10355707;28;20242;-43
2024/01/27 00:28:05;;;;;;;4.13;3.40;;;;;;;6.97;42.46;101609.72;10358524;28;20244;-43
2024/01/27 00:33:07;;;;;;;5.97;2.73;;;;;;;8.93;40.48;101369.97;10356025;28;20260;-43
2024/01/27 00:38:09;;;;;;;3.60;3.30;;;;;;;10.37;38.42;101444.31;10358079;28;20785;-43
2024/01/27 00:43:11;;;;;;;9.57;5.03;;;;;;;9.62;38.96;101563.41;10357000;28;20322;-44
2024/01/27 00:48:13;;;;;;;11.73;7.57;;;;;;;8.35;40.53;101583.88;10353120;28;20308;-43
2024/01/27 00:53:15;;;;;;;10.57;4.90;;;;;;;8.73;40.02;101566.53;10352551;28;20344;-40
2024/01/27 00:58:17;;;;;;;4.07;3.67;;;;;;;9.00;39.50;101528.66;10356921;28;20241;-43
2024/01/27 01:03:18;;;;;;;8.97;3.70;;;;;;;8.96;40.03;101549.44;10351798;28;20251;-43
2024/01/27 01:08:20;;;;;;;5.77;4.23;;;;;;;8.72;39.91;101613.69;10351140;28;20715;-42
2024/01/27 01:13:22;;;;;;;10.20;6.53;;;;;;;8.28;41.09;101492.84;10333441;28;20327;-43
2024/01/27 01:18:23;;;;;;;9.97;7.17;;;;;;;6.94;41.95;101666.72;10354208;28;20233;-43
2024/01/27 01:23:25;;;;;;;7.90;5.57;;;;;;;8.45;40.67;101435.41;10352207;28;20275;-43
2024/01/27 01:28:28;;;;;;;6.27;4.90;;;;;;;9.29;39.74;101453.16;10356571;28;20233;-43
2024/01/27 01:33:30;;;;;;;7.83;5.20;;;;;;;8.03;41.44;101633.53;10352266;28;20252;-43
2024/01/27 01:38:32;;;;;;;7.00;5.10;;;;;;;7.76;41.96;101595.69;10356224;28;20241;-43
2024/01/27 01:43:33;;;;;;;7.07;5.13;;;;;;;6.44;43.36;101642.84;10351941;28;20264;-43
2024/01/27 01:48:35;;;;;;;7.10;5.27;;;;;;;8.42;41.21;101478.34;10355967;28;20256;-43
2024/01/27 01:53:37;;;;;;;7.43;5.30;;;;;;;8.14;41.50;101571.31;10352667;28;20249;-43
2024/01/27 01:58:39;;;;;;;7.67;5.37;;;;;;;7.97;42.00;101564.69;10352286;28;20294;-43
2024/01/27 02:03:51;;;;;;;6.27;5.53;;;;;;;8.14;41.20;101589.16;10349286;28;21099;-43
2024/01/27 02:08:53;;;;;;;6.60;4.73;;;;;;;9.36;40.05;101475.69;10354736;28;20229;-43
2024/01/27 02:13:55;;;;;;;8.87;4.50;;;;;;;9.44;39.34;101477.69;10348620;28;20245;-43
2024/01/27 02:18:56;;;;;;;7.10;5.10;;;;;;;8.74;40.12;101598.44;10350433;28;20232;-43
2024/01/27 02:23:58;;;;;;;5.07;3.80;;;;;;;7.94;41.22;101575.59;10349375;28;20238;-40
2024/01/27 02:29:00;;;;;;;5.50;3.60;;;;;;;8.17;40.88;101546.22;10348915;28;20229;-43
2024/01/27 02:34:02;;;;;;;6.30;4.47;;;;;;;9.22;39.31;101499.09;10347131;28;20230;-43
2024/01/27 02:39:04;;;;;;;5.47;4.97;;;;;;;8.63;40.28;101527.25;10352241;28;20233;-43
2024/01/27 02:44:05;;;;;;;8.07;5.13;;;;;;;8.21;41.14;101508.50;10349363;28;20240;-43
2024/01/27 02:49:07;;;;;;;4.80;4.30;;;;;;;7.71;40.89;101668.88;10336453;28;20237;-43
2024/01/27 02:54:09;;;;;;;5.17;4.20;;;;;;;8.41;40.09;101602.91;10349825;28;20240;-43
2024/01/27 02:59:12;;;;;;;7.77;4.33;;;;;;;6.98;41.84;101680.66;10350933;28;20237;-43
2024/01/27 03:04:14;;;;;;;8.47;5.17;;;;;;;8.00;41.11;101486.28;10349082;28;20256;-43
2024/01/27 03:09:15;;;;;;;7.70;5.13;;;;;;;7.95;40.62;101585.31;10325579;28;20234;-43
2024/01/27 03:14:17;;;;;;;6.07;5.47;;;;;;;7.49;41.36;101636.84;10343218;28;20233;-43
2024/01/27 03:19:19;;;;;;;6.87;5.37;;;;;;;7.99;41.42;101453.44;10347979;28;20249;-43
2024/01/27 03:24:21;;;;;;;4.50;4.10;;;;;;;7.97;40.79;101587.84;10344590;28;20299;-43
2024/01/27 03:29:23;;;;;;;5.27;4.23;;;;;;;8.31;40.19;101526.44;10349567;28;20704;-43
2024/01/27 03:34:24;;;;;;;6.70;4.63;;;;;;;7.73;41.07;101620.78;10350042;28;20683;-43
2024/01/27 03:39:27;;;;;;;6.20;4.53;;;;;;;8.57;39.94;101503.75;10352435;28;20234;-43
2024/01/27 03:44:29;;;;;;;7.47;4.10;;;;;;;8.04;40.74;101605.88;10348296;28;20237;-43
2024/01/27 03:49:30;;;;;;;6.23;5.10;;;;;;;7.01;41.91;101699.06;10357728;28;20237;-43
2024/01/27 03:54:32;;;;;;;6.67;5.13;;;;;;;7.23;42.27;101485.25;10354186;28;20290;-42
2024/01/27 03:59:34;;;;;;;5.90;5.33;;;;;;;7.92;40.63;101551.72;10358225;28;20747;-43
2024/01/27 04:04:35;;;;;;;10.37;6.67;;;;;;;7.21;41.80;101512.97;10335723;28;20238;-43
2024/01/27 04:09:37;;;;;;;6.00;4.60;;;;;;;5.79;44.13;101491.66;10357888;28;20241;-43
2024/01/27 04:14:39;;;;;;;9.10;5.37;;;;;;;7.11;42.40;101508.38;10343272;28;20234;-43
2024/01/27 04:19:41;;;;;;;8.83;6.50;;;;;;;6.25;43.47;101454.56;10338477;28;20282;-43
2024/01/27 04:24:43;;;;;;;6.67;5.00;;;;;;;6.06;43.23;101579.19;10354545;28;20233;-43
2024/01/27 04:29:45;;;;;;;9.00;6.07;;;;;;;6.27;43.99;101533.38;10357960;28;20213;-42
2024/01/27 04:34:47;;;;;;;7.97;6.10;;;;;;;5.62;44.23;101639.81;10350012;28;20241;-43
2024/01/27 04:39:49;;;;;;;8.73;7.03;;;;;;;6.92;42.94;101423.81;10354652;28;20662;-43
2024/01/27 04:44:50;;;;;;;12.23;5.47;;;;;;;6.33;45.00;101536.44;10356151;28;20225;-43
2024/01/27 04:49:53;;;;;;;6.57;5.87;;;;;;;6.87;43.47;101483.66;10357449;28;20543;-43
2024/01/27 04:54:55;;;;;;;6.90;6.20;;;;;;;6.63;44.31;101416.25;10350583;28;20596;-43
2024/01/27 04:59:57;;;;;;;6.83;5.70;;;;;;;6.99;43.43;101416.19;10351005;28;20218;-43
2024/01/27 05:04:58;;;;;;;8.00;5.67;;;;;;;6.67;43.88;101474.50;10353344;28;20228;-42
2024/01/27 05:10:00;;;;;;;7.43;6.03;;;;;;;5.65;45.48;101493.50;10357092;28;20216;-43
2024/01/27 05:15:03;;;;;;;7.97;5.83;;;;;;;7.35;43.05;101478.97;10348872;28;20253;-41
2024/01/27 05:20:05;;;;;;;10.43;5.87;;;;;;;7.94;41.84;101447.66;10354443;28;20774;-43
2024/01/27 05:25:07;;;;;;;7.53;5.47;;;;;;;7.86;41.61;101512.22;10334291;28;20248;-43
2024/01/27 05:30:09;;;;;;;9.77;5.87;;;;;;;7.31;42.73;101530.78;10355429;28;20209;-43
2024/01/27 05:35:11;;;;;;;9.33;6.67;;;;;;;7.61;42.31;101542.66;10354382;28;20332;-43
2024/01/27 05:40:14;;;;;;;8.03;6.30;;;;;;;8.06;41.38;101491.09;10356827;28;20213;-43
2024/01/27 05:45:16;;;;;;;9.97;6.37;;;;;;;7.48;41.74;101622.69;10350527;28;20267;-43
2024/01/27 05:50:18;;;;;;;9.30;6.70;;;;;;;7.17;43.54;101544.31;10356519;28;20248;-42
2024/01/27 05:55:20;;;;;;;11.80;7.90;;;;;;;8.35;40.70;101488.69;10353335;28;20236;-43
2024/01/27 06:00:21;;;;;;;9.03;7.17;;;;;;;6.14;43.72;101693.75;10353219;28;20459;-43
2024/01/27 06:05:23;;;;;;;9.47;7.13;;;;;;;7.17;43.00;101501.72;10349789;28;20233;-43
2024/01/27 06:10:25;;;;;;;9.33;6.17;;;;;;;5.88;43.63;101717.69;10353579;28;20241;-43
2024/01/27 06:15:26;;;;;;;8.10;6.93;;;;;;;5.80;45.37;101499.50;10350595;28;20724;-42
2024/01/27 06:20:28;;;;;;;12.13;7.47;;;;;;;5.73;45.20;101559.38;10351743;28;20251;-43
2024/01/27 06:25:30;;;;;;;9.67;7.67;;;;;;;7.15;42.14;101475.22;10336776;28;20241;-43
2024/01/27 06:30:31;;;;;;;9.40;7.13;;;;;;;7.20;41.49;101536.09;10353179;28;20229;-43
2024/01/27 06:35:33;;;;;;;11.73;8.30;;;;;;;5.81;43.13;101650.00;10354149;28;20234;-42
2024/01/27 06:40:35;;;;;;;12.20;8.10;;;;;;;6.07;42.67;101557.78;10352229;28;20347;-43
2024/01/27 06:45:37;;;;;;;12.77;8.67;;;;;;;6.35;42.83;101525.69;10324080;28;20257;-43
2024/01/27 06:50:38;;;;;;;39.60;9.50;;;;;;;6.94;42.07;101557.59;10346900;28;20236;-43
2024/01/27 06:55:40;;;;;;;79.27;11.90;;;;;;;5.13;45.15;101681.13;10270776;28;20300;-43
2024/01/27 07:00:45;;;;;;;78.63;10.83;;;;;;;3.54;48.43;101554.38;10277956;28;20652;-43
2024/01/27 07:05:47;;;;;;;130.67;12.80;;;;;;;3.35;49.59;101460.22;10271515;28;20243;-43
2024/01/27 07:10:48;;;;;;;61.50;11.30;;;;;;;3.60;49.00;101398.66;10274148;28;20221;-43
2024/01/27 07:15:50;;;;;;;39.97;10.47;;;;;;;5.41;44.80;101519.97;10272866;28;20734;-43
2024/01/27 07:20:52;;;;;;;41.20;15.33;;;;;;;5.75;44.52;101448.53;10282527;28;20239;-43
2024/01/27 07:25:54;;;;;;;24.33;16.27;;;;;;;5.85;43.75;101436.25;10279157;28;20237;-44
2024/01/27 07:30:56;;;;;;;16.37;11.03;;;;;;;5.36;44.23;101548.66;10278522;28;20733;-43
2024/01/27 07:35:57;;;;;;;17.40;11.33;;;;;;;5.83;43.19;101560.41;10278003;28;20561;-43
2024/01/27 07:40:59;;;;;;;15.23;10.30;;;;;;;4.77;44.33;101661.38;10281914;28;20627;-43
2024/01/27 07:46:01;;;;;;;12.43;10.13;;;;;;;6.62;42.84;101454.44;10277018;28;20300;-43
2024/01/27 07:51:03;;;;;;;10.17;8.10;;;;;;;7.21;41.63;101511.19;10283935;28;20340;-43
2024/01/27 07:56:05;;;;;;;9.40;8.23;;;;;;;5.57;44.54;101603.84;10284944;28;20241;-43
2024/01/27 08:01:09;;;;;;;10.23;8.87;;;;;;;7.49;41.83;101548.94;10283148;28;20233;-43
2024/01/27 08:06:16;;;;;;;17.20;12.63;;;;;;;6.47;43.14;101567.31;10280374;28;20251;-43
2024/01/27 08:11:18;;;;;;;14.77;10.87;;;;;;;8.16;40.85;101509.88;10281248;28;20245;-43
2024/01/27 08:16:21;;;;;;;16.40;13.13;;;;;;;6.16;43.21;101713.13;10282263;28;20308;-42
2024/01/27 08:21:22;;;;;;;18.03;15.63;;;;;;;7.55;42.33;101503.19;10275181;28;20242;-43
2024/01/27 08:26:24;;;;;;;21.10;16.80;;;;;;;7.84;41.91;101503.53;10271225;28;20629;-43
2024/01/27 08:31:26;;;;;;;22.27;17.80;;;;;;;8.44;41.33;101511.94;10283681;28;20321;-43
2024/01/27 08:36:28;;;;;;;14.73;10.37;;;;;;;7.89;42.01;101596.44;10276667;28;20245;-43
2024/01/27 08:41:30;;;;;;;22.57;18.30;;;;;;;8.04;42.37;101523.22;10268795;28;20238;-43
2024/01/27 08:46:31;;;;;;;20.23;17.20;;;;;;;8.90;41.41;101546.44;10271523;28;20290;-43
2024/01/27 08:51:34;;;;;;;18.80;12.83;;;;;;;8.28;42.40;101602.19;10287112;28;20257;-44
2024/01/27 08:56:40;;;;;;;21.77;13.80;;;;;;;7.64;42.95;101658.78;10353977;28;20239;-43
2024/01/27 09:01:42;;;;;;;15.57;13.70;;;;;;;8.10;42.71;101591.22;10349585;28;20636;-43
2024/01/27 09:06:43;;;;;;;11.73;8.90;;;;;;;8.16;42.79;101537.38;10352907;28;20240;-43
2024/01/27 09:11:46;;;;;;;14.87;12.27;;;;;;;7.66;43.09;101676.38;10335413;28;20703;-43
2024/01/27 09:16:48;;;;;;;12.87;7.90;;;;;;;7.56;43.70;101582.16;10356825;28;20275;-43
2024/01/27 09:21:50;;;;;;;15.73;8.63;;;;;;;9.33;41.50;101521.38;10350420;28;20347;-43
2024/01/27 09:26:51;;;;;;;12.73;8.10;;;;;;;6.32;44.69;101730.66;10353078;28;20692;-43
2024/01/27 09:31:53;;;;;;;10.50;6.33;;;;;;;6.83;43.65;101732.34;10347415;28;20316;-43
2024/01/27 09:36:55;;;;;;;9.87;5.37;;;;;;;8.57;42.19;101463.75;10356105;28;20213;-44
2024/01/27 09:42:04;;;;;;;20.43;12.33;;;;;;;9.63;40.73;101630.09;10343635;28;20241;-42
2024/01/27 09:47:07;;;;;;;8.37;5.67;;;;;;;8.34;43.21;101681.75;10353597;28;20232;-42
2024/01/27 09:52:09;;;;;;;7.00;5.87;;;;;;;9.21;42.42;101608.75;10348044;28;20241;-45
2024/01/27 09:57:12;;;;;;;10.43;7.37;;;;;;;8.85;43.22;101619.72;10351310;28;20225;-44
2024/01/27 10:02:17;;;;;;;8.17;6.67;;;;;;;9.53;42.31;101539.19;10350232;28;20695;-42
2024/01/27 10:07:19;;;;;;;11.87;7.50;;;;;;;8.59;41.94;101717.97;10351427;28;20699;-43
2024/01/27 10:12:25;;;;;;;8.87;5.47;;;;;;;6.17;46.20;101579.22;10348067;28;20237;-43
2024/01/27 10:17:32;;;;;;;24.60;14.50;;;;;;;6.34;45.46;101729.56;10349203;28;20663;-43
2024/01/27 10:22:41;;;;;;;9.43;6.60;;;;;;;6.95;45.14;101614.31;10329305;28;20327;-43
2024/01/27 10:27:45;;;;;;;17.63;11.17;;;;;;;6.88;46.04;101531.44;10351593;28;20261;-43
2024/01/27 10:32:56;;;;;;;12.27;6.90;;;;;;;5.98;47.07;101672.72;10346855;28;20535;-43
2024/01/27 10:37:59;;;;;;;7.93;6.17;;;;;;;8.55;43.84;101436.31;10345610;28;20763;-43
2024/01/27 10:43:05;;;;;;;11.03;6.53;;;;;;;6.64;46.15;101555.41;10346059;28;20245;-43
2024/01/27 10:48:12;;;;;;;10.47;5.77;;;;;;;8.64;43.56;101598.34;10350046;28;20714;-43
2024/01/27 10:53:23;;;;;;;8.90;5.20;;;;;;;9.82;41.37;101580.34;10342442;28;20237;-43
2024/01/27 10:58:26;;;;;;;9.57;5.83;;;;;;;8.16;43.74;101636.03;10338719;28;20233;-43
2024/01/27 11:06:22;;;;;;;8.20;6.10;;;;;;;5.22;49.91;101580.63;10554173;27;20382;-65
2024/01/27 11:11:24;;;;;;;8.67;5.60;;;;;;;6.85;48.59;101371.16;10470080;28;20245;-66
2024/01/27 11:16:28;;;;;;;10.37;6.60;;;;;;;7.31;47.97;101381.66;10475790;28;20239;-66
2024/01/27 11:21:30;;;;;;;6.80;5.13;;;;;;;6.76;48.04;101517.25;10463334;28;20239;-65
2024/01/27 11:26:31;;;;;;;7.80;5.53;;;;;;;7.41;47.89;101437.69;10432006;28;20227;-66
2024/01/27 11:31:35;;;;;;;10.90;6.67;;;;;;;6.86;48.46;101509.44;10434281;28;20239;-66
2024/01/27 11:36:36;;;;;;;10.37;6.23;;;;;;;6.67;48.59;101438.13;10432042;28;20607;-64
2024/01/27 11:41:40;;;;;;;8.07;6.40;;;;;;;7.72;47.42;101421.88;10430037;28;20624;-65
2024/01/27 11:46:42;;;;;;;9.67;5.57;;;;;;;7.81;46.89;101450.44;10448153;28;20385;-65
2024/01/27 11:51:44;;;;;;;9.97;5.77;;;;;;;7.41;47.43;101527.38;10474655;28;20627;-65
2024/01/27 11:56:46;;;;;;;6.93;5.37;;;;;;;7.94;46.73;101441.47;10475206;28;20238;-65
2024/01/27 12:01:48;;;;;;;10.10;5.57;;;;;;;8.11;46.75;101417.75;10475312;28;20688;-65
2024/01/27 12:06:49;;;;;;;10.97;5.40;;;;;;;8.47;46.15;101436.97;10470218;28;20250;-64
2024/01/27 12:11:51;;;;;;;6.57;4.73;;;;;;;8.00;47.06;101391.16;10467266;28;20237;-65
2024/01/27 12:16:53;;;;;;;7.43;3.97;;;;;;;7.72;45.55;101553.28;10448488;28;20232;-65
2024/01/27 12:21:55;;;;;;;8.43;4.93;;;;;;;8.43;45.05;101485.38;10446537;28;20240;-65
2024/01/27 12:26:57;;;;;;;8.30;4.63;;;;;;;8.07;45.52;101506.97;10435564;28;20228;-65
2024/01/27 12:31:59;;;;;;;7.43;5.03;;;;;;;7.94;46.33;101466.31;10438322;28;20582;-64
2024/01/27 12:37:02;;;;;;;10.03;5.20;;;;;;;7.92;46.16;101511.75;10446657;28;20370;-65
2024/01/27 12:42:04;;;;;;;9.07;4.83;;;;;;;8.43;45.70;101432.88;10444294;28;20706;-65
2024/01/27 12:47:06;;;;;;;7.30;4.57;;;;;;;8.69;45.35;101455.66;10451196;28;20742;-65
2024/01/27 12:52:08;;;;;;;8.10;4.40;;;;;;;7.95;45.52;101489.34;10441541;28;20327;-65
2024/01/27 12:57:10;;;;;;;5.47;3.90;;;;;;;8.22;44.71;101562.72;10439438;28;20245;-65
2024/01/27 13:02:11;;;;;;;10.20;4.03;;;;;;;8.68;44.68;101462.81;10430750;28;20242;-65
2024/01/27 13:07:14;;;;;;;7.73;3.77;;;;;;;8.70;44.44;101457.34;10439960;28;20852;-65
2024/01/27 13:12:15;;;;;;;8.63;3.87;;;;;;;8.24;43.63;101550.09;10437433;28;20243;-64
2024/01/27 13:17:17;;;;;;;8.80;3.73;;;;;;;7.59;45.02;101579.22;10448134;28;20419;-64
2024/01/27 13:22:20;;;;;;;5.30;3.30;;;;;;;8.73;43.50;101523.81;10442487;28;20230;-64
2024/01/27 13:27:22;;;;;;;8.47;3.47;;;;;;;9.26;43.78;101351.91;10438975;28;20286;-65
2024/01/27 13:32:24;;;;;;;6.17;3.37;;;;;;;9.14;42.93;101450.00;10442751;28;20291;-64
2024/01/27 13:37:26;;;;;;;7.77;4.53;;;;;;;9.35;42.60;101500.72;10440590;28;20752;-64
2024/01/27 13:42:28;;;;;;;4.97;3.27;;;;;;;9.82;42.97;101394.06;10437853;28;20317;-64
2024/01/27 13:47:29;;;;;;;7.13;3.50;;;;;;;8.68;43.13;101534.88;10486053;28;20443;-64
2024/01/27 13:52:31;;;;;;;4.93;3.17;;;;;;;8.65;43.80;101511.94;10479959;28;20775;-64
2024/01/27 13:57:33;;;;;;;6.33;3.20;;;;;;;8.28;43.21;101573.69;10485106;28;20265;-64
2024/01/27 14:02:34;;;;;;;45.50;27.37;;;;;;;9.21;42.87;101390.59;10481636;28;20268;-65
2024/01/27 14:07:39;;;;;;;51.63;30.87;;;;;;;8.18;43.65;101571.91;10476170;28;20695;-64
2024/01/27 14:12:41;;;;;;;17.30;10.20;;;;;;;8.82;43.48;101544.38;10473764;28;20235;-64
2024/01/27 14:17:43;;;;;;;12.00;9.83;;;;;;;8.89;42.62;101560.75;10482494;28;20277;-64
2024/01/27 14:22:44;;;;;;;9.63;5.50;;;;;;;8.88;43.19;101438.94;10474664;28;20357;-65
2024/01/27 14:27:46;;;;;;;8.03;5.33;;;;;;;9.63;42.57;101413.56;10476768;28;20617;-65
2024/01/27 14:32:52;;;;;;;36.03;27.33;;;;;;;8.34;43.30;101495.00;10477650;28;20336;-65
2024/01/27 14:37:53;;;;;;;20.30;13.63;;;;;;;9.15;42.13;101455.22;10484702;28;20245;-64
2024/01/27 14:42:56;;;;;;;13.53;9.20;;;;;;;8.91;42.04;101530.28;10477815;28;20227;-64
2024/01/27 14:47:58;;;;;;;9.53;5.80;;;;;;;8.61;42.67;101507.84;10474070;28;20259;-65
2024/01/27 14:53:05;;;;;;;99.33;49.13;;;;;;;8.23;43.16;101473.72;10473978;28;20260;-64
2024/01/27 14:58:06;;;;;;;11.23;7.93;;;;;;;8.49;43.67;101532.91;10486508;28;20279;-64
2024/01/27 15:03:09;;;;;;;11.17;7.13;;;;;;;9.33;43.11;101425.19;10477189;28;20767;-64
2024/01/27 15:08:12;;;;;;;15.37;9.07;;;;;;;9.64;42.44;101380.53;10480499;28;20259;-64
2024/01/27 15:13:13;;;;;;;8.57;3.60;;;;;;;9.24;42.97;101426.00;10478369;28;20248;-68
2024/01/27 15:18:16;;;;;;;4.07;3.10;;;;;;;9.54;42.66;101377.84;10469077;28;20242;-66
2024/01/27 15:23:22;;;;;;;4.77;3.50;;;;;;;9.62;42.39;101390.53;10479302;28;20223;-69
2024/01/27 15:28:26;;;;;;;7.27;4.17;;;;;;;8.89;43.43;101459.31;10480301;28;20744;-68
2024/01/27 15:33:31;;;;;;;9.13;3.93;;;;;;;8.66;43.57;101401.56;10482797;28;20251;-65
2024/01/27 15:38:32;;;;;;;8.30;4.97;;;;;;;9.01;42.61;101370.97;10478371;28;20235;-68
2024/01/27 15:43:35;;;;;;;4.83;4.27;;;;;;;8.20;43.58;101472.16;10479407;28;20571;-67
2024/01/27 15:48:36;;;;;;;7.90;3.80;;;;;;;8.02;43.55;101479.03;10478859;28;20243;-68
2024/01/27 15:53:38;;;;;;;7.90;4.60;;;;;;;8.03;43.11;101489.56;10485248;28;20251;-68
2024/01/27 15:58:40;;;;;;;7.13;3.40;;;;;;;7.26;43.89;101588.88;10486700;28;20247;-68
2024/01/27 16:03:42;;;;;;;5.47;3.90;;;;;;;7.81;43.11;101554.38;10479195;28;20658;-66
2024/01/27 16:08:43;;;;;;;8.03;4.23;;;;;;;7.91;43.33;101501.19;10484214;28;20734;-69
2024/01/27 16:13:45;;;;;;;6.83;4.23;;;;;;;7.25;44.27;101555.22;10483247;28;20712;-67
2024/01/27 16:18:47;;;;;;;6.43;4.73;;;;;;;8.68;42.70;101342.72;10490699;28;20273;-67
2024/01/27 16:23:49;;;;;;;7.67;3.93;;;;;;;7.97;43.30;101455.41;10479523;28;20223;-66
2024/01/27 16:28:50;;;;;;;7.57;3.90;;;;;;;7.90;43.09;101513.69;10480735;28;20320;-66
2024/01/27 16:33:52;;;;;;;7.27;4.97;;;;;;;8.37;42.42;101445.88;10483499;28;20226;-67
2024/01/27 16:38:54;;;;;;;8.47;4.50;;;;;;;7.85;43.79;101451.09;10485254;28;20247;-65
2024/01/27 16:43:55;;;;;;;6.87;3.47;;;;;;;6.84;44.34;101617.81;10484782;28;20226;-67
2024/01/27 16:48:57;;;;;;;9.57;4.80;;;;;;;6.20;45.12;101616.22;10488453;28;20308;-68
2024/01/27 16:53:59;;;;;;;12.27;4.73;;;;;;;7.96;43.78;101381.72;10486198;28;20268;-67
2024/01/27 16:59:03;;;;;;;8.17;4.57;;;;;;;8.00;43.91;101340.50;10454241;28;20619;-64
2024/01/27 17:04:07;;;;;;;6.20;4.50;;;;;;;7.72;43.93;101350.78;10484646;28;20230;-66
2024/01/27 17:09:11;;;;;;;7.47;5.10;;;;;;;7.11;44.27;101415.19;10485535;28;20254;-67
2024/01/27 17:14:13;;;;;;;6.23;4.30;;;;;;;7.39;43.46;101460.91;10482751;28;20236;-67
2024/01/27 17:19:15;;;;;;;14.27;5.80;;;;;;;7.04;44.16;101474.34;10483744;28;20321;-67
2024/01/27 17:24:17;;;;;;;7.70;4.13;;;;;;;7.10;44.29;101460.56;10487617;28;20230;-67
2024/01/27 17:29:18;;;;;;;9.60;4.10;;;;;;;6.93;44.27;101430.78;10484350;28;20365;-69
2024/01/27 17:34:20;;;;;;;7.97;5.20;;;;;;;6.45;45.45;101449.56;10488200;28;20234;-67
2024/01/27 17:39:23;;;;;;;9.30;4.70;;;;;;;6.54;45.43;101392.16;10487077;28;20896;-67
2024/01/27 17:44:24;;;;;;;9.70;5.00;;;;;;;5.71;46.52;101427.63;10484495;28;20231;-67
2024/01/27 17:49:26;;;;;;;12.70;5.03;;;;;;;6.21;45.99;101314.88;10480749;28;21256;-64
2024/01/27 17:54:28;;;;;;;11.90;6.23;;;;;;;5.92;45.95;101431.34;10480928;28;20236;-65
2024/01/27 17:59:39;;;;;;;8.17;4.63;;;;;;;5.73;46.07;101436.34;10474927;28;20242;-64
2024/01/27 18:04:40;;;;;;;8.10;4.37;;;;;;;6.15;46.43;101251.53;10472661;28;20243;-65
2024/01/27 18:09:42;;;;;;;10.03;4.97;;;;;;;6.38;46.11;101256.88;10468499;28;20237;-65
2024/01/27 18:14:44;;;;;;;5.97;4.10;;;;;;;6.10;45.72;101361.84;10477626;28;20326;-64
2024/01/27 18:19:48;;;;;;;7.33;4.40;;;;;;;6.13;45.89;101335.03;10482220;28;20235;-65
2024/01/27 18:24:51;;;;;;;9.63;6.23;;;;;;;5.95;45.88;101379.78;10480657;28;20245;-67
2024/01/27 18:29:53;;;;;;;17.60;11.20;;;;;;;6.14;45.24;101440.38;10477161;28;20242;-64
2024/01/27 18:34:54;;;;;;;18.50;15.97;;;;;;;5.74;47.07;101302.53;10479692;28;20733;-64
2024/01/27 18:40:00;;;;;;;14.23;10.67;;;;;;;6.38;45.27;101373.84;10472459;28;20740;-64
2024/01/27 18:45:03;;;;;;;11.93;5.20;;;;;;;5.28;46.75;101466.91;10474640;28;20640;-63
2024/01/27 18:50:07;;;;;;;7.73;5.03;;;;;;;5.52;47.37;101304.13;10481543;28;20241;-63
2024/01/27 18:55:09;;;;;;;6.90;5.00;;;;;;;5.35;46.71;101442.56;10481638;28;20340;-64
2024/01/27 19:00:11;;;;;;;12.93;7.73;;;;;;;5.61;46.45;101403.53;10469526;28;20228;-64
2024/01/27 19:05:15;;;;;;;17.33;12.60;;;;;;;5.48;46.54;101401.72;10474014;28;20552;-64
2024/01/27 19:10:17;;;;;;;12.37;6.20;;;;;;;5.19;47.10;101413.63;10467840;28;20266;-64
2024/01/27 19:15:19;;;;;;;9.53;5.90;;;;;;;5.01;47.37;101416.59;10482360;28;20223;-64
2024/01/27 19:20:20;;;;;;;6.97;4.70;;;;;;;4.84;47.85;101387.75;10473464;28;20278;-64
2024/01/27 19:25:22;;;;;;;11.70;7.20;;;;;;;4.79;47.66;101425.22;10477786;28;20239;-64
2024/01/27 19:30:24;;;;;;;7.20;6.13;;;;;;;5.36;47.09;101306.22;10478743;28;20317;-65
2024/01/27 19:35:26;;;;;;;11.30;6.63;;;;;;;5.45;46.98;101282.50;10478606;28;20266;-65
2024/01/27 19:40:28;;;;;;;10.80;6.57;;;;;;;5.10;46.93;101384.13;10487264;28;20239;-65
2024/01/27 19:45:30;;;;;;;9.20;5.70;;;;;;;5.32;46.39;101378.13;10490962;28;20235;-64
2024/01/27 19:50:31;;;;;;;8.93;6.20;;;;;;;4.45;47.97;101426.69;10478742;28;20239;-63
2024/01/27 19:55:33;;;;;;;8.43;5.80;;;;;;;5.15;46.85;101314.81;10484710;28;20281;-64
2024/01/27 20:00:35;;;;;;;9.43;5.93;;;;;;;5.11;46.70;101339.84;10475185;28;20234;-65
2024/01/27 20:05:37;;;;;;;12.20;5.43;;;;;;;5.35;47.19;101201.81;10485959;28;20288;-64
2024/01/27 20:10:38;;;;;;;7.93;5.17;;;;;;;5.63;46.15;101218.38;10481436;28;20677;-64
2024/01/27 20:15:40;;;;;;;7.87;4.90;;;;;;;5.09;46.93;101308.09;10490394;28;20339;-64
2024/01/27 20:20:42;;;;;;;7.47;5.83;;;;;;;5.61;46.01;101233.59;10460602;28;20247;-64
2024/01/27 20:25:43;;;;;;;8.03;5.77;;;;;;;4.81;46.85;101390.63;10485229;28;20242;-64
2024/01/27 20:30:45;;;;;;;10.77;5.60;;;;;;;5.33;45.75;101318.75;10480246;28;20731;-63
2024/01/27 20:35:48;;;;;;;8.70;5.10;;;;;;;4.37;47.52;101395.38;10483706;28;20230;-68
2024/01/27 20:40:50;;;;;;;9.20;5.67;;;;;;;4.69;47.87;101288.91;10498430;28;20235;-67
2024/01/27 20:45:51;;;;;;;9.80;5.97;;;;;;;4.55;47.35;101319.03;10489669;28;20331;-68
2024/01/27 20:50:54;;;;;;;10.43;5.63;;;;;;;4.58;47.16;101324.16;10495791;28;20822;-65
2024/01/27 20:55:55;;;;;;;9.87;5.37;;;;;;;4.95;46.63;101290.53;10478095;28;20259;-66
2024/01/27 21:00:57;;;;;;;9.87;5.30;;;;;;;4.61;47.13;101312.47;10492739;28;20250;-66
2024/01/27 21:05:59;;;;;;;10.33;6.60;;;;;;;4.91;46.22;101339.47;10464805;28;20726;-65
2024/01/27 21:11:03;;;;;;;13.63;5.77;;;;;;;4.98;46.51;101323.09;10447016;28;20235;-66
2024/01/27 21:16:05;;;;;;;10.23;5.87;;;;;;;4.23;47.08;101435.19;10439439;28;20225;-64
2024/01/27 21:21:07;;;;;;;9.03;5.50;;;;;;;5.46;45.32;101307.22;10436986;28;20291;-66
2024/01/27 21:26:08;;;;;;;9.37;6.10;;;;;;;5.37;45.99;101207.00;10450203;28;20569;-66
2024/01/27 21:31:10;;;;;;;9.37;5.97;;;;;;;4.26;46.62;101440.31;10453122;28;20242;-67
2024/01/27 21:36:12;;;;;;;8.50;5.90;;;;;;;3.86;48.02;101369.59;10457259;28;20267;-65
2024/01/27 21:41:14;;;;;;;6.53;5.30;;;;;;;4.98;46.38;101204.59;10459425;28;20727;-64
2024/01/27 21:46:15;;;;;;;8.30;6.60;;;;;;;4.10;47.84;101286.78;10453484;28;20234;-66
2024/01/27 21:51:17;;;;;;;8.97;5.97;;;;;;;3.87;47.68;101334.25;10437910;28;20640;-65
2024/01/27 21:56:19;;;;;;;10.93;6.27;;;;;;;3.82;48.07;101323.94;10459113;28;20230;-66
2024/01/27 22:01:20;;;;;;;11.93;5.50;;;;;;;3.65;48.23;101334.81;10458266;28;20231;-64
2024/01/27 22:06:22;;;;;;;9.23;5.83;;;;;;;3.56;48.24;101333.59;10484296;28;20716;-65
2024/01/27 22:11:24;;;;;;;8.30;5.93;;;;;;;4.25;47.22;101216.00;10481313;28;20274;-68
2024/01/27 22:16:26;;;;;;;7.23;5.50;;;;;;;3.63;47.70;101364.03;10484416;28;20705;-67
2024/01/27 22:21:28;;;;;;;8.37;6.30;;;;;;;3.30;48.34;101398.81;10476705;28;20265;-66
2024/01/27 22:26:29;;;;;;;7.83;5.70;;;;;;;3.65;47.86;101301.25;10477340;28;20726;-65
2024/01/27 22:31:31;;;;;;;8.20;6.00;;;;;;;3.91;47.57;101282.75;10479023;28;20314;-65
2024/01/27 22:36:33;;;;;;;8.80;6.00;;;;;;;4.20;47.02;101272.81;10478457;28;20241;-65
2024/01/27 22:41:35;;;;;;;11.60;6.33;;;;;;;3.31;48.29;101366.13;10485352;22;20239;-36
2024/01/27 22:46:38;;;;;;;9.40;6.10;;;;;;;3.41;48.38;101313.44;10445233;28;20769;-36
2024/01/27 22:51:42;;;;;;;9.93;6.27;;;;;;;3.67;47.77;101269.38;10445837;28;21603;-36
2024/01/27 22:56:44;;;;;;;8.03;7.07;;;;;;;3.52;48.18;101287.13;10453465;22;20253;-38
2024/01/27 23:01:45;;;;;;;10.67;6.57;;;;;;;3.37;48.20;101299.56;10433311;28;20235;-37
2024/01/27 23:06:47;;;;;;;7.30;5.87;;;;;;;2.79;48.99;101399.28;10432059;28;20231;-36
2024/01/27 23:11:49;;;;;;;9.53;6.67;;;;;;;3.17;48.78;101276.19;10433382;28;20316;-37
2024/01/27 23:16:51;;;;;;;8.33;6.23;;;;;;;3.87;47.90;101162.09;10416026;28;20400;-37
2024/01/27 23:21:53;;;;;;;13.20;7.13;;;;;;;3.20;48.34;101335.03;10430691;28;20467;-36